Walbrook, Maryland
Current Conditions -  °F | °C
As of 4:54 PM on Friday 24 Oct 2014 (Local Time) from KBWI Reporting Station
Broken Clouds Broken Clouds  
Wind Chill: 67°   Ceiling: 25000
Heat Index: 67°   Visibility: 10mi
Dew Point: 36°   Wind: 7mph
Humidity: 32%   Direction: 300°WNW
Pressure: 29.87"   Gusts: NA
Location:  39.311°N, 76.6719°W
Report Text: KBWI 242054Z 30006KT 10SM SCT200 BKN250 19/02 A2987 RMK AO2 SLP113 T01940022 56005
Loading
Personal Weather Stations






























Interactive Weather Map
Tropical Storm Tracking
New forecast layout! Learn more

10-Day Weather Forecast

Advertisements
Track Severe Weather on mobile